Time;durP1;ratioP1;P1;durP2;ratioP2;P2;SDS_P1;SDS_P2;PMS_P1;PMS_P2;Temp;Humidity;BMP_temperature;BMP_pressure;BME280_temperature;BME280_humidity;BME280_pressure;Samples;Min_cycle;Max_cycle;Signal;HPM_P1;HPM_P2
2023/08/10 00:01:23;;;;;;;;;;;14.30;59.90;;;;;;4176552;28;19917;-83
2023/08/10 00:03:23;;;;;;;;;;;14.30;59.90;;;;;;4178279;28;20010;-83
2023/08/10 00:05:24;;;;;;;;;;;14.40;60.00;;;;;;4176886;28;20383;-82
2023/08/10 00:07:24;;;;;;;;;;;14.30;60.30;;;;;;4181566;28;20124;-83
2023/08/10 00:09:25;;;;;;;;;;;14.30;60.00;;;;;;4183621;28;19909;-83
2023/08/10 00:11:26;;;;;;;;;;;14.40;60.20;;;;;;4181914;28;20323;-84
2023/08/10 00:13:26;;;;;;;;;;;14.20;60.10;;;;;;4182291;28;19908;-83
2023/08/10 00:15:27;;;;;;;;;;;14.20;60.20;;;;;;4180021;28;19928;-84
2023/08/10 00:17:28;;;;;;;;;;;14.30;60.40;;;;;;4183312;28;19909;-84
2023/08/10 00:19:28;;;;;;;;;;;14.30;60.60;;;;;;4182653;28;19909;-83
2023/08/10 00:21:29;;;;;;;;;;;14.20;60.60;;;;;;4179441;28;19956;-83
2023/08/10 00:23:30;;;;;;;;;;;14.20;60.50;;;;;;4182152;28;19917;-83
2023/08/10 00:25:32;;;;;;;;;;;14.20;60.60;;;;;;4181943;28;20367;-83
2023/08/10 00:27:34;;;;;;;;;;;14.20;60.60;;;;;;4178933;28;19948;-83
2023/08/10 00:29:36;;;;;;;;;;;14.20;60.60;;;;;;4179177;28;19913;-83
2023/08/10 00:31:37;;;;;;;;;;;14.20;60.40;;;;;;4183959;28;19913;-83
2023/08/10 00:33:38;;;;;;;;;;;14.10;60.70;;;;;;4177641;28;20163;-83
2023/08/10 00:35:39;;;;;;;;;;;14.20;61.00;;;;;;4181511;28;19921;-83
2023/08/10 00:37:39;;;;;;;;;;;14.10;60.80;;;;;;4182057;28;20383;-83
2023/08/10 00:39:40;;;;;;;;;;;14.10;60.90;;;;;;4180944;28;19917;-83
2023/08/10 00:41:41;;;;;;;;;;;14.10;60.70;;;;;;4180666;28;19909;-83
2023/08/10 00:44:03;;;;;;;;;;;14.10;60.80;;;;;;4182136;28;20011;-83
2023/08/10 00:46:24;;;;;;;;;;;14.00;60.80;;;;;;4179862;28;19917;-83
2023/08/10 00:48:44;;;;;;;;;;;14.10;60.90;;;;;;4180582;28;20356;-83
2023/08/10 00:51:05;;;;;;;;;;;14.10;60.90;;;;;;4180073;28;19909;-83
2023/08/10 00:53:26;;;;;;;;;;;14.00;60.90;;;;;;4176166;28;19924;-83
2023/08/10 00:55:51;;;;;;;;;;;14.00;60.90;;;;;;4183493;28;20259;-83
2023/08/10 00:58:11;;;;;;;;;;;14.00;60.90;;;;;;4202762;22;20341;-87
2023/08/10 01:00:32;;;;;;;;;;;14.00;61.10;;;;;;4179200;28;19912;-88
2023/08/10 01:02:33;;;;;;;;;;;14.00;60.90;;;;;;4177740;28;20062;-86
2023/08/10 01:04:33;;;;;;;;;;;14.00;60.70;;;;;;4175866;28;19988;-86
2023/08/10 01:06:39;;;;;;;;;;;14.00;60.90;;;;;;4184234;28;19957;-86
2023/08/10 01:08:43;;;;;;;;;;;14.00;60.80;;;;;;4181422;28;19912;-86
2023/08/10 01:11:00;;;;;;;;;;;14.00;61.00;;;;;;4178447;28;19912;-86
2023/08/10 01:13:06;;;;;;;;;;;13.90;60.90;;;;;;4164860;28;20004;-87
2023/08/10 01:15:25;;;;;;;;;;;14.00;61.00;;;;;;4180579;28;20404;-86
2023/08/10 01:17:29;;;;;;;;;;;13.90;61.20;;;;;;4160763;28;19999;-87
2023/08/10 01:19:38;;;;;;;;;;;14.00;61.40;;;;;;4176215;28;19916;-86
2023/08/10 01:21:58;;;;;;;;;;;13.90;61.50;;;;;;4162256;28;20329;-86
2023/08/10 01:24:03;;;;;;;;;;;13.80;61.60;;;;;;4182945;28;20380;-86
2023/08/10 01:26:04;;;;;;;;;;;13.90;61.60;;;;;;4179928;28;20000;-88
2023/08/10 01:28:06;;;;;;;;;;;13.80;61.70;;;;;;4177862;28;19975;-86
2023/08/10 01:30:08;;;;;;;;;;;13.80;61.90;;;;;;4183383;28;19920;-86
2023/08/10 01:32:14;;;;;;;;;;;13.80;62.30;;;;;;4178618;28;19927;-86
2023/08/10 01:34:15;;;;;;;;;;;13.80;62.20;;;;;;4168340;28;19917;-87
2023/08/10 01:36:15;;;;;;;;;;;13.80;62.30;;;;;;4182344;28;19919;-86
2023/08/10 01:38:16;;;;;;;;;;;13.80;62.40;;;;;;4180779;28;19928;-86
2023/08/10 01:40:17;;;;;;;;;;;13.70;62.20;;;;;;4181808;28;19920;-89
2023/08/10 01:42:17;;;;;;;;;;;13.70;62.00;;;;;;4178625;28;20317;-87
2023/08/10 01:44:21;;;;;;;;;;;13.80;62.20;;;;;;4180360;28;19960;-87
2023/08/10 01:46:24;;;;;;;;;;;13.70;62.20;;;;;;4184579;28;20317;-86
2023/08/10 01:48:29;;;;;;;;;;;13.70;62.50;;;;;;4178591;28;19913;-87
2023/08/10 01:50:33;;;;;;;;;;;13.70;62.50;;;;;;4178648;28;19972;-87
2023/08/10 01:52:36;;;;;;;;;;;13.70;62.50;;;;;;4177573;28;20289;-87
2023/08/10 01:54:37;;;;;;;;;;;13.70;62.70;;;;;;4184221;28;19916;-87
2023/08/10 01:56:37;;;;;;;;;;;13.80;62.90;;;;;;4173297;28;20345;-87
2023/08/10 01:58:38;;;;;;;;;;;13.70;62.90;;;;;;4177499;28;19916;-86
2023/08/10 02:00:42;;;;;;;;;;;13.70;62.80;;;;;;4178884;28;19920;-88
2023/08/10 02:02:42;;;;;;;;;;;13.70;62.70;;;;;;4182437;28;19913;-87
2023/08/10 02:04:43;;;;;;;;;;;13.70;62.50;;;;;;4180101;28;19909;-86
2023/08/10 02:06:43;;;;;;;;;;;13.70;62.40;;;;;;4180995;28;19951;-87
2023/08/10 02:08:44;;;;;;;;;;;13.70;62.50;;;;;;4185171;28;19912;-89
2023/08/10 02:10:44;;;;;;;;;;;13.80;62.80;;;;;;4181016;28;19915;-86
2023/08/10 02:12:45;;;;;;;;;;;13.80;62.80;;;;;;4175458;28;19916;-87
2023/08/10 02:14:45;;;;;;;;;;;13.70;62.90;;;;;;4179177;28;19909;-87
2023/08/10 02:16:46;;;;;;;;;;;13.70;62.80;;;;;;4182574;28;19999;-87
2023/08/10 02:18:46;;;;;;;;;;;13.70;62.90;;;;;;4178934;28;20038;-88
2023/08/10 02:20:47;;;;;;;;;;;13.70;63.00;;;;;;4173029;28;19967;-87
2023/08/10 02:22:49;;;;;;;;;;;13.60;62.80;;;;;;4180879;28;19921;-87
2023/08/10 02:24:50;;;;;;;;;;;13.70;63.20;;;;;;4176899;28;19916;-85
2023/08/10 02:26:51;;;;;;;;;;;13.60;63.80;;;;;;4173962;28;19924;-85
2023/08/10 02:28:51;;;;;;;;;;;13.60;63.80;;;;;;4185552;28;19962;-88
2023/08/10 02:30:52;;;;;;;;;;;13.60;63.70;;;;;;4182841;28;19978;-86
2023/08/10 02:32:52;;;;;;;;;;;13.60;63.50;;;;;;4186495;28;20318;-86
2023/08/10 02:34:53;;;;;;;;;;;13.60;63.30;;;;;;4178032;28;19916;-86
2023/08/10 02:36:53;;;;;;;;;;;13.60;63.60;;;;;;4174577;28;19969;-87
2023/08/10 02:38:54;;;;;;;;;;;13.60;63.50;;;;;;4174510;28;19917;-87
2023/08/10 02:40:54;;;;;;;;;;;13.60;63.60;;;;;;4176795;28;19923;-86
2023/08/10 02:42:55;;;;;;;;;;;13.60;63.80;;;;;;4178194;28;19913;-86
2023/08/10 02:44:56;;;;;;;;;;;13.70;63.90;;;;;;4178680;28;20051;-86
2023/08/10 02:46:56;;;;;;;;;;;13.60;64.00;;;;;;4184136;28;19944;-87
2023/08/10 02:48:57;;;;;;;;;;;13.60;64.20;;;;;;4176607;28;19920;-86
2023/08/10 02:50:58;;;;;;;;;;;13.60;63.80;;;;;;4172145;28;20034;-86
2023/08/10 02:52:59;;;;;;;;;;;13.50;63.80;;;;;;4176673;28;20047;-88
2023/08/10 02:55:19;;;;;;;;;;;13.60;63.70;;;;;;4183626;28;19917;-86
2023/08/10 02:57:23;;;;;;;;;;;13.60;63.70;;;;;;4173922;28;19963;-87
2023/08/10 02:59:43;;;;;;;;;;;13.50;64.10;;;;;;4174433;28;19917;-87
2023/08/10 03:02:05;;;;;;;;;;;13.50;64.00;;;;;;4177246;28;20015;-87
2023/08/10 03:04:05;;;;;;;;;;;13.60;64.10;;;;;;4162711;28;19923;-86
2023/08/10 03:06:28;;;;;;;;;;;13.50;64.20;;;;;;4174352;28;19913;-86
2023/08/10 03:08:48;;;;;;;;;;;13.60;64.50;;;;;;4191022;28;19925;-86
2023/08/10 03:11:09;;;;;;;;;;;13.60;64.60;;;;;;4176503;28;19955;-86
2023/08/10 03:13:29;;;;;;;;;;;13.50;64.70;;;;;;4175886;28;19952;-86
2023/08/10 03:15:51;;;;;;;;;;;13.60;65.10;;;;;;4180007;28;19978;-88
2023/08/10 03:18:12;;;;;;;;;;;13.60;64.90;;;;;;4182178;28;19912;-89
2023/08/10 03:20:32;;;;;;;;;;;13.60;64.90;;;;;;4172602;28;19975;-87
2023/08/10 03:22:53;;;;;;;;;;;13.60;65.00;;;;;;4178006;28;19920;-87
2023/08/10 03:24:53;;;;;;;;;;;13.60;65.00;;;;;;4178042;28;19917;-87
2023/08/10 03:26:54;;;;;;;;;;;13.60;65.40;;;;;;4174662;28;19913;-86
2023/08/10 03:28:55;;;;;;;;;;;13.60;65.00;;;;;;4173042;28;19931;-87
2023/08/10 03:30:55;;;;;;;;;;;13.60;64.90;;;;;;4161643;28;19928;-87
2023/08/10 03:32:56;;;;;;;;;;;13.50;65.10;;;;;;4181036;28;19948;-86
2023/08/10 03:34:56;;;;;;;;;;;13.60;65.10;;;;;;4161563;28;19909;-86
2023/08/10 03:36:57;;;;;;;;;;;13.60;64.90;;;;;;4174657;28;19909;-88
2023/08/10 03:38:57;;;;;;;;;;;13.50;65.00;;;;;;4179444;28;19913;-86
2023/08/10 03:40:58;;;;;;;;;;;13.50;65.10;;;;;;4187468;28;19919;-84
2023/08/10 03:42:59;;;;;;;;;;;13.50;65.00;;;;;;4179051;28;19912;-83
2023/08/10 03:45:19;;;;;;;;;;;13.50;64.90;;;;;;4176056;28;19917;-85
2023/08/10 03:47:20;;;;;;;;;;;13.60;65.30;;;;;;4183604;28;19996;-86
2023/08/10 03:49:22;;;;;;;;;;;13.60;65.00;;;;;;4181897;28;20425;-85
2023/08/10 03:51:34;;;;;;;;;;;13.50;65.00;;;;;;4168348;28;19913;-84
2023/08/10 03:53:35;;;;;;;;;;;13.60;65.00;;;;;;4164073;28;19913;-84
2023/08/10 03:55:56;;;;;;;;;;;13.60;65.10;;;;;;4181622;28;19916;-86
2023/08/10 03:58:16;;;;;;;;;;;13.50;65.40;;;;;;4179279;28;19981;-84
2023/08/10 04:00:37;;;;;;;;;;;13.60;65.50;;;;;;4180151;28;19991;-84
2023/08/10 04:02:48;;;;;;;;;;;13.50;65.70;;;;;;4181015;28;19909;-84
2023/08/10 04:05:10;;;;;;;;;;;13.60;66.00;;;;;;4182320;28;20004;-86
2023/08/10 04:07:33;;;;;;;;;;;13.60;65.50;;;;;;4180085;28;19955;-85
2023/08/10 04:09:54;;;;;;;;;;;13.50;65.50;;;;;;4183610;28;19994;-86
2023/08/10 04:12:14;;;;;;;;;;;13.50;65.20;;;;;;4185516;28;19948;-85
2023/08/10 04:14:35;;;;;;;;;;;13.40;65.10;;;;;;4179435;28;19917;-85
2023/08/10 04:16:56;;;;;;;;;;;13.50;65.70;;;;;;4179701;28;19909;-85
2023/08/10 04:19:17;;;;;;;;;;;13.50;65.00;;;;;;4182597;28;19916;-86
2023/08/10 04:21:39;;;;;;;;;;;13.50;64.90;;;;;;4181500;28;20000;-87
2023/08/10 04:23:59;;;;;;;;;;;13.50;65.80;;;;;;4184257;28;19924;-89
2023/08/10 04:26:20;;;;;;;;;;;13.50;66.00;;;;;;4181429;28;19943;-88
2023/08/10 04:28:41;;;;;;;;;;;13.40;65.90;;;;;;4183758;28;19912;-86
2023/08/10 04:31:01;;;;;;;;;;;13.50;66.30;;;;;;4178658;28;19916;-86
2023/08/10 04:33:22;;;;;;;;;;;13.40;66.20;;;;;;4182032;28;19939;-90
2023/08/10 04:35:23;;;;;;;;;;;13.50;66.20;;;;;;4184628;28;19912;-86
2023/08/10 04:37:23;;;;;;;;;;;13.50;66.50;;;;;;4178339;28;20051;-87
2023/08/10 04:39:24;;;;;;;;;;;13.50;66.30;;;;;;4165907;28;19913;-87
2023/08/10 04:41:25;;;;;;;;;;;13.40;66.50;;;;;;4185986;28;19920;-87
2023/08/10 04:43:25;;;;;;;;;;;13.40;67.40;;;;;;4183986;28;19962;-86
2023/08/10 04:45:26;;;;;;;;;;;13.30;67.00;;;;;;4184149;28;19995;-89
2023/08/10 04:47:26;;;;;;;;;;;13.50;66.80;;;;;;4181354;28;19913;-88
2023/08/10 04:49:28;;;;;;;;;;;13.40;66.40;;;;;;4184543;28;19920;-88
2023/08/10 04:51:28;;;;;;;;;;;13.40;65.50;;;;;;4179489;28;20321;-86
2023/08/10 04:53:29;;;;;;;;;;;13.30;66.20;;;;;;4178014;28;19913;-89
2023/08/10 04:55:30;;;;;;;;;;;13.40;65.60;;;;;;4179005;28;19913;-88
2023/08/10 04:57:31;;;;;;;;;;;13.30;65.30;;;;;;4181601;28;20024;-86
2023/08/10 04:59:32;;;;;;;;;;;13.40;66.00;;;;;;4169621;28;19910;-90
2023/08/10 05:01:52;;;;;;;;;;;13.30;65.60;;;;;;4176596;28;19927;-87
2023/08/10 05:04:14;;;;;;;;;;;13.40;65.60;;;;;;4181117;28;19919;-88
2023/08/10 05:06:36;;;;;;;;;;;13.50;65.50;;;;;;4181806;28;19916;-84
2023/08/10 05:08:57;;;;;;;;;;;13.40;66.00;;;;;;4178609;28;19920;-85
2023/08/10 05:11:17;;;;;;;;;;;13.40;66.00;;;;;;4182993;28;19912;-85
2023/08/10 05:13:38;;;;;;;;;;;13.40;66.10;;;;;;4185246;28;19951;-84
2023/08/10 05:15:41;;;;;;;;;;;13.40;66.00;;;;;;4179123;28;19946;-87
2023/08/10 05:18:02;;;;;;;;;;;13.30;65.70;;;;;;4175702;28;20185;-85
2023/08/10 05:20:23;;;;;;;;;;;13.40;65.80;;;;;;4182235;28;19912;-87
2023/08/10 05:22:43;;;;;;;;;;;13.40;65.70;;;;;;4186539;28;19908;-84
2023/08/10 05:25:05;;;;;;;;;;;13.40;66.10;;;;;;4180784;28;19917;-84
2023/08/10 05:27:26;;;;;;;;;;;13.30;66.90;;;;;;4181985;28;20316;-85
2023/08/10 05:29:46;;;;;;;;;;;13.30;66.90;;;;;;4183839;28;19920;-84
2023/08/10 05:32:07;;;;;;;;;;;13.30;68.10;;;;;;4177743;28;19910;-84
2023/08/10 05:34:28;;;;;;;;;;;13.30;67.90;;;;;;4177932;28;19963;-85
2023/08/10 05:36:48;;;;;;;;;;;13.40;68.40;;;;;;4181587;28;19966;-85
2023/08/10 05:39:09;;;;;;;;;;;13.40;69.10;;;;;;4173979;28;19915;-83
2023/08/10 05:41:29;;;;;;;;;;;13.30;69.10;;;;;;4177711;28;20007;-84
2023/08/10 05:43:50;;;;;;;;;;;13.40;69.40;;;;;;4183977;28;19944;-85
2023/08/10 05:45:56;;;;;;;;;;;13.40;69.10;;;;;;4183043;28;20007;-84
2023/08/10 05:47:57;;;;;;;;;;;13.40;69.30;;;;;;4178521;28;20488;-84
2023/08/10 05:49:57;;;;;;;;;;;13.40;69.80;;;;;;4182874;28;19921;-84
2023/08/10 05:51:58;;;;;;;;;;;13.50;69.60;;;;;;4181843;28;19912;-84
2023/08/10 05:53:58;;;;;;;;;;;13.50;69.90;;;;;;4182998;28;20398;-84
2023/08/10 05:55:59;;;;;;;;;;;13.50;70.40;;;;;;4181391;28;20438;-88
2023/08/10 05:58:00;;;;;;;;;;;13.50;70.10;;;;;;4182786;28;20015;-85
2023/08/10 06:00:00;;;;;;;;;;;13.50;70.00;;;;;;4161233;28;20000;-83
2023/08/10 06:02:01;;;;;;;;;;;13.50;69.90;;;;;;4177104;28;19959;-82
2023/08/10 06:04:02;;;;;;;;;;;13.60;69.70;;;;;;4178027;28;19967;-85
2023/08/10 06:06:06;;;;;;;;;;;13.60;69.60;;;;;;4179797;28;20101;-84
2023/08/10 06:08:09;;;;;;;;;;;13.70;69.70;;;;;;4161505;28;19924;-84
2023/08/10 06:10:27;;;;;;;;;;;13.70;69.60;;;;;;4175236;28;19912;-84
2023/08/10 06:12:48;;;;;;;;;;;13.80;70.30;;;;;;4179551;28;20051;-84
2023/08/10 06:14:49;;;;;;;;;;;13.90;70.90;;;;;;4183795;28;20433;-84
2023/08/10 06:17:09;;;;;;;;;;;13.90;70.80;;;;;;4182076;28;19955;-84
2023/08/10 06:19:30;;;;;;;;;;;13.90;70.80;;;;;;4185660;28;19892;-84
2023/08/10 06:21:53;;;;;;;;;;;14.00;70.30;;;;;;4168826;28;19972;-86
2023/08/10 06:24:16;;;;;;;;;;;14.10;70.10;;;;;;4192377;28;20035;-86
2023/08/10 06:26:36;;;;;;;;;;;14.10;69.90;;;;;;4186555;28;19919;-86
2023/08/10 06:28:57;;;;;;;;;;;14.10;69.70;;;;;;4199992;28;19940;-88
2023/08/10 06:30:57;;;;;;;;;;;14.30;69.30;;;;;;4199509;28;19909;-86
2023/08/10 06:33:19;;;;;;;;;;;14.30;69.10;;;;;;4194264;28;19980;-86
2023/08/10 06:35:39;;;;;;;;;;;14.40;69.10;;;;;;4199801;28;19909;-88
2023/08/10 06:38:00;;;;;;;;;;;14.40;69.80;;;;;;4201580;28;19903;-87
2023/08/10 06:40:21;;;;;;;;;;;14.40;69.50;;;;;;4196650;28;19909;-87
2023/08/10 06:42:42;;;;;;;;;;;14.50;69.40;;;;;;4198401;28;19916;-87
2023/08/10 06:45:06;;;;;;;;;;;14.50;69.30;;;;;;4196282;28;19971;-88
2023/08/10 06:47:06;;;;;;;;;;;14.60;69.30;;;;;;4195490;28;20012;-88
2023/08/10 06:49:07;;;;;;;;;;;14.70;69.30;;;;;;4190942;28;19923;-88
2023/08/10 06:51:10;;;;;;;;;;;14.70;69.20;;;;;;4194884;28;20408;-89
2023/08/10 06:53:11;;;;;;;;;;;14.70;69.00;;;;;;4198112;28;19909;-86
2023/08/10 06:55:12;;;;;;;;;;;14.80;68.80;;;;;;4184815;28;19955;-88
2023/08/10 06:57:13;;;;;;;;;;;14.90;68.50;;;;;;4179906;28;19917;-89
2023/08/10 06:59:13;;;;;;;;;;;14.80;68.30;;;;;;4212250;22;19962;-83
2023/08/10 07:01:22;;;;;;;;;;;14.90;68.20;;;;;;4183207;28;19923;-84
2023/08/10 07:03:30;;;;;;;;;;;14.90;68.00;;;;;;4182385;28;19935;-84
2023/08/10 07:05:34;;;;;;;;;;;15.00;68.00;;;;;;4182574;28;19913;-82
2023/08/10 07:07:34;;;;;;;;;;;15.10;67.80;;;;;;4182873;28;19916;-84
2023/08/10 07:09:38;;;;;;;;;;;15.10;67.60;;;;;;4181790;28;19909;-84
2023/08/10 07:11:41;;;;;;;;;;;15.10;67.90;;;;;;4183421;28;19948;-85
2023/08/10 07:13:50;;;;;;;;;;;15.20;68.10;;;;;;4180449;28;20398;-83
2023/08/10 07:15:54;;;;;;;;;;;15.20;67.20;;;;;;4180784;28;19917;-83
2023/08/10 07:17:57;;;;;;;;;;;15.30;67.00;;;;;;4180770;28;19913;-83
2023/08/10 07:20:03;;;;;;;;;;;15.40;66.10;;;;;;4177067;28;19928;-83
2023/08/10 07:22:13;;;;;;;;;;;15.40;65.90;;;;;;4196966;28;19912;-84
2023/08/10 07:24:33;;;;;;;;;;;15.40;65.50;;;;;;4181327;28;19913;-83
2023/08/10 07:26:36;;;;;;;;;;;15.50;64.20;;;;;;4178752;28;19932;-84
2023/08/10 07:28:57;;;;;;;;;;;15.60;64.30;;;;;;4178088;28;20007;-84
2023/08/10 07:31:01;;;;;;;;;;;15.60;64.10;;;;;;4165543;28;20391;-83
2023/08/10 07:33:21;;;;;;;;;;;15.60;64.00;;;;;;4178852;28;19943;-83
2023/08/10 07:35:42;;;;;;;;;;;15.60;63.70;;;;;;4181268;28;19916;-84
2023/08/10 07:37:45;;;;;;;;;;;15.60;63.40;;;;;;4180126;28;20366;-84
2023/08/10 07:40:06;;;;;;;;;;;15.70;63.60;;;;;;4181765;28;19913;-84
2023/08/10 07:42:08;;;;;;;;;;;15.70;63.30;;;;;;4178133;28;19908;-84
2023/08/10 07:44:29;;;;;;;;;;;15.70;63.20;;;;;;4179860;28;19936;-84
2023/08/10 07:46:49;;;;;;;;;;;15.80;62.70;;;;;;4180755;28;19917;-83
2023/08/10 07:49:11;;;;;;;;;;;15.80;62.90;;;;;;4182532;28;19971;-85
2023/08/10 07:51:31;;;;;;;;;;;16.00;63.50;;;;;;4176113;28;19928;-84
2023/08/10 07:53:52;;;;;;;;;;;16.00;61.90;;;;;;4175026;28;20045;-82
2023/08/10 07:56:12;;;;;;;;;;;16.00;62.00;;;;;;4180722;28;19970;-83
2023/08/10 07:58:33;;;;;;;;;;;16.10;61.60;;;;;;4177634;28;19998;-84
2023/08/10 08:00:53;;;;;;;;;;;16.20;61.40;;;;;;4180375;28;19916;-84
2023/08/10 08:03:14;;;;;;;;;;;16.20;60.90;;;;;;4182647;28;19913;-83
2023/08/10 08:05:37;;;;;;;;;;;16.20;60.00;;;;;;4178971;28;19917;-84
2023/08/10 08:07:58;;;;;;;;;;;16.20;60.10;;;;;;4176553;28;19923;-83
2023/08/10 08:10:18;;;;;;;;;;;16.20;59.90;;;;;;4176037;28;19912;-82
2023/08/10 08:12:39;;;;;;;;;;;16.20;60.00;;;;;;4179609;28;19912;-84
2023/08/10 08:14:47;;;;;;;;;;;16.30;59.70;;;;;;4171221;28;19916;-84
2023/08/10 08:17:30;;;;;;;;;;;16.30;60.00;;;;;;4185784;28;19921;-85
2023/08/10 08:19:37;;;;;;;;;;;16.30;59.50;;;;;;4160283;28;19980;-83
2023/08/10 08:21:57;;;;;;;;;;;16.40;59.30;;;;;;4194132;28;19923;-83
2023/08/10 08:24:23;;;;;;;;;;;16.40;59.20;;;;;;4178509;28;19919;-84
2023/08/10 08:26:53;;;;;;;;;;;16.50;58.30;;;;;;4181836;28;20038;-83
2023/08/10 08:29:25;;;;;;;;;;;16.50;58.40;;;;;;4182504;28;19920;-84
2023/08/10 08:31:49;;;;;;;;;;;16.50;57.90;;;;;;4181325;28;19920;-83
2023/08/10 08:34:10;;;;;;;;;;;16.50;57.50;;;;;;4182511;28;19908;-85
2023/08/10 08:36:31;;;;;;;;;;;16.60;57.40;;;;;;4180673;28;19939;-83
2023/08/10 08:39:02;;;;;;;;;;;16.70;58.00;;;;;;4184040;28;19931;-84
2023/08/10 08:41:29;;;;;;;;;;;16.70;58.00;;;;;;4192503;28;19916;-83
2023/08/10 08:43:50;;;;;;;;;;;16.80;57.80;;;;;;4186057;28;19909;-83
2023/08/10 08:46:16;;;;;;;;;;;16.90;56.50;;;;;;4186685;28;19919;-84
2023/08/10 08:48:40;;;;;;;;;;;17.00;57.00;;;;;;4182472;28;19921;-84
2023/08/10 08:51:01;;;;;;;;;;;17.10;57.20;;;;;;4183951;28;19978;-82
2023/08/10 08:53:33;;;;;;;;;;;17.10;56.90;;;;;;4177863;28;19990;-84
2023/08/10 08:55:46;;;;;;;;;;;17.10;56.70;;;;;;4165912;28;19918;-84
2023/08/10 08:57:53;;;;;;;;;;;17.30;56.60;;;;;;4169181;28;19935;-84
2023/08/10 09:00:16;;;;;;;;;;;17.40;56.20;;;;;;4197183;28;19927;-84
2023/08/10 09:02:20;;;;;;;;;;;17.40;56.00;;;;;;4216779;28;20027;-84
2023/08/10 09:04:21;;;;;;;;;;;17.40;54.60;;;;;;4202340;28;19915;-83
2023/08/10 09:06:21;;;;;;;;;;;17.40;53.80;;;;;;4194434;28;19922;-84
2023/08/10 09:08:29;;;;;;;;;;;17.50;53.60;;;;;;4198940;28;19921;-84
2023/08/10 09:10:30;;;;;;;;;;;17.50;54.50;;;;;;4180340;28;19940;-84
2023/08/10 09:12:36;;;;;;;;;;;17.60;53.40;;;;;;4181191;28;20016;-83
2023/08/10 09:14:49;;;;;;;;;;;17.60;53.80;;;;;;4174521;28;19913;-84
2023/08/10 09:16:51;;;;;;;;;;;17.60;53.80;;;;;;4164105;28;20375;-83
2023/08/10 09:18:51;;;;;;;;;;;17.70;53.30;;;;;;4181772;28;19908;-84
2023/08/10 09:20:52;;;;;;;;;;;17.70;53.80;;;;;;4184126;28;21014;-83
2023/08/10 09:22:53;;;;;;;;;;;17.80;53.80;;;;;;4188141;28;19920;-84
2023/08/10 09:24:55;;;;;;;;;;;17.80;53.60;;;;;;4194089;28;19917;-83
2023/08/10 09:27:05;;;;;;;;;;;17.90;53.70;;;;;;4189565;28;19909;-84
2023/08/10 09:29:11;;;;;;;;;;;18.00;53.80;;;;;;4169718;28;19914;-85
2023/08/10 09:31:12;;;;;;;;;;;18.00;53.30;;;;;;4186402;28;19913;-84
2023/08/10 09:33:31;;;;;;;;;;;18.00;52.80;;;;;;4186841;28;20428;-86
2023/08/10 09:35:34;;;;;;;;;;;18.10;52.00;;;;;;4169325;28;19909;-85
2023/08/10 09:37:35;;;;;;;;;;;18.20;51.80;;;;;;4180182;28;19913;-85
2023/08/10 09:39:39;;;;;;;;;;;18.20;51.20;;;;;;4182281;28;19909;-86
2023/08/10 09:41:41;;;;;;;;;;;18.20;51.40;;;;;;4165196;28;19925;-85
2023/08/10 09:43:42;;;;;;;;;;;18.20;51.30;;;;;;4180121;28;20003;-84
2023/08/10 09:45:44;;;;;;;;;;;18.20;51.10;;;;;;4177112;28;20008;-85
2023/08/10 09:47:45;;;;;;;;;;;18.20;51.50;;;;;;4181825;28;20436;-84
2023/08/10 09:49:56;;;;;;;;;;;18.20;51.40;;;;;;4183477;28;19917;-85
2023/08/10 09:52:00;;;;;;;;;;;18.20;51.20;;;;;;4197607;28;19921;-84
2023/08/10 09:54:23;;;;;;;;;;;18.30;51.80;;;;;;4183151;28;19927;-84
2023/08/10 09:56:44;;;;;;;;;;;18.30;51.50;;;;;;4178527;28;19921;-85
2023/08/10 09:58:52;;;;;;;;;;;18.40;50.70;;;;;;4180635;28;20353;-83
2023/08/10 10:01:03;;;;;;;;;;;18.40;50.10;;;;;;4167922;28;19979;-84
2023/08/10 10:03:29;;;;;;;;;;;18.50;50.00;;;;;;4178503;28;19979;-84
2023/08/10 10:05:50;;;;;;;;;;;18.40;49.60;;;;;;4180465;28;19909;-86
2023/08/10 10:07:51;;;;;;;;;;;18.50;49.40;;;;;;4178857;28;19917;-84
2023/08/10 10:10:15;;;;;;;;;;;18.40;49.80;;;;;;4179660;28;19913;-84
2023/08/10 10:12:36;;;;;;;;;;;18.40;49.80;;;;;;4179583;28;19917;-85
2023/08/10 10:14:43;;;;;;;;;;;18.40;49.50;;;;;;4173526;28;19913;-85
2023/08/10 10:17:04;;;;;;;;;;;18.50;48.70;;;;;;4176851;28;19935;-84
2023/08/10 10:19:25;;;;;;;;;;;18.40;49.00;;;;;;4179259;28;19948;-83
2023/08/10 10:21:52;;;;;;;;;;;18.50;48.40;;;;;;4178697;28;19916;-84
2023/08/10 10:24:13;;;;;;;;;;;18.50;49.20;;;;;;4175710;28;19960;-85
2023/08/10 10:26:34;;;;;;;;;;;18.40;49.20;;;;;;4178919;28;19952;-84
2023/08/10 10:29:11;;;;;;;;;;;18.50;48.80;;;;;;4176472;28;19917;-86
2023/08/10 10:31:33;;;;;;;;;;;18.50;49.10;;;;;;4171721;28;19913;-84
2023/08/10 10:33:54;;;;;;;;;;;18.50;49.00;;;;;;4172978;28;19912;-84
2023/08/10 10:36:26;;;;;;;;;;;18.50;49.30;;;;;;4178969;28;19908;-84
2023/08/10 10:38:47;;;;;;;;;;;18.50;49.70;;;;;;4174691;28;19924;-84
2023/08/10 10:41:27;;;;;;;;;;;18.50;49.10;;;;;;4175073;28;19913;-85
2023/08/10 10:43:48;;;;;;;;;;;18.60;49.00;;;;;;4174547;28;19917;-83
2023/08/10 10:46:31;;;;;;;;;;;18.60;46.60;;;;;;4177579;28;19917;-84
2023/08/10 10:48:58;;;;;;;;;;;18.60;47.20;;;;;;4178910;28;19939;-86
2023/08/10 10:51:04;;;;;;;;;;;18.60;46.20;;;;;;4179195;28;19909;-85
2023/08/10 10:53:25;;;;;;;;;;;18.70;46.60;;;;;;4175531;28;19917;-84
2023/08/10 10:55:54;;;;;;;;;;;18.70;47.00;;;;;;4179916;28;19938;-85
2023/08/10 10:58:25;;;;;;;;;;;18.70;47.30;;;;;;4179944;28;19948;-85
2023/08/10 11:00:57;;;;;;;;;;;18.70;47.40;;;;;;4175478;28;19917;-84
2023/08/10 11:03:29;;;;;;;;;;;18.70;47.80;;;;;;4176829;28;20345;-85
2023/08/10 11:05:58;;;;;;;;;;;18.70;48.30;;;;;;4181683;28;19912;-85
2023/08/10 11:08:19;;;;;;;;;;;18.80;48.20;;;;;;4180116;28;20053;-84
2023/08/10 11:10:22;;;;;;;;;;;18.80;48.60;;;;;;4176246;28;19913;-85
2023/08/10 11:12:23;;;;;;;;;;;18.80;47.60;;;;;;4178133;28;19921;-85
2023/08/10 11:14:51;;;;;;;;;;;18.90;47.20;;;;;;4179757;28;19920;-85
2023/08/10 11:17:03;;;;;;;;;;;18.90;47.50;;;;;;4171461;28;19933;-86
2023/08/10 11:19:16;;;;;;;;;;;19.00;47.90;;;;;;4155857;28;19964;-84
2023/08/10 11:21:37;;;;;;;;;;;19.00;47.90;;;;;;4160428;28;19913;-85
2023/08/10 11:23:46;;;;;;;;;;;19.10;47.70;;;;;;4162267;28;19917;-84
2023/08/10 11:26:11;;;;;;;;;;;19.20;47.30;;;;;;4162784;28;20068;-85
2023/08/10 11:28:19;;;;;;;;;;;19.10;47.10;;;;;;4082503;29;19927;-85
2023/08/10 11:30:21;;;;;;;;;;;19.10;46.70;;;;;;4094671;29;19917;-83
2023/08/10 11:32:45;;;;;;;;;;;19.10;45.40;;;;;;4092387;28;20629;-84
2023/08/10 11:35:18;;;;;;;;;;;19.10;45.30;;;;;;4099678;28;20005;-83
2023/08/10 11:37:36;;;;;;;;;;;19.20;46.30;;;;;;4100879;28;19926;-84
2023/08/10 11:40:12;;;;;;;;;;;19.10;46.30;;;;;;4108477;28;19918;-86
2023/08/10 11:42:38;;;;;;;;;;;19.10;45.70;;;;;;4096018;28;19911;-86
2023/08/10 11:45:08;;;;;;;;;;;19.10;46.20;;;;;;4108634;28;19917;-85
2023/08/10 11:47:59;;;;;;;;;;;19.00;46.10;;;;;;4104597;28;19925;-83
2023/08/10 11:50:21;;;;;;;;;;;19.10;47.10;;;;;;4111415;28;20005;-85
2023/08/10 11:52:47;;;;;;;;;;;19.20;47.30;;;;;;4099139;28;19918;-86
2023/08/10 11:55:16;;;;;;;;;;;19.20;47.30;;;;;;4098952;28;19964;-86
2023/08/10 11:57:49;;;;;;;;;;;19.20;47.40;;;;;;4111005;28;20315;-85
2023/08/10 12:00:21;;;;;;;;;;;19.30;48.00;;;;;;4100504;28;19926;-86
2023/08/10 12:02:54;;;;;;;;;;;19.50;48.00;;;;;;4094177;28;19991;-84
2023/08/10 12:05:01;;;;;;;;;;;19.50;47.60;;;;;;4130477;28;19940;-84
2023/08/10 12:07:02;;;;;;;;;;;19.50;46.80;;;;;;4179333;28;19920;-85
2023/08/10 12:09:11;;;;;;;;;;;19.60;47.10;;;;;;4181109;28;19921;-85
2023/08/10 12:11:12;;;;;;;;;;;19.60;46.80;;;;;;4177750;28;19919;-86
2023/08/10 12:13:21;;;;;;;;;;;19.70;45.90;;;;;;4168101;28;19948;-85
2023/08/10 12:15:35;;;;;;;;;;;19.70;46.40;;;;;;4167919;28;19909;-87
2023/08/10 12:17:56;;;;;;;;;;;19.70;46.20;;;;;;4182102;28;19944;-85
2023/08/10 12:20:19;;;;;;;;;;;19.80;46.00;;;;;;4176370;28;19917;-85
2023/08/10 12:22:40;;;;;;;;;;;19.70;45.50;;;;;;4180421;28;19996;-84
2023/08/10 12:25:01;;;;;;;;;;;19.70;45.40;;;;;;4179191;28;20035;-85
2023/08/10 12:27:02;;;;;;;;;;;19.70;45.20;;;;;;4162922;28;20501;-86
2023/08/10 12:29:23;;;;;;;;;;;19.70;44.80;;;;;;4179019;28;20665;-85
2023/08/10 12:31:43;;;;;;;;;;;19.60;44.90;;;;;;4178661;28;19913;-86
2023/08/10 12:34:04;;;;;;;;;;;19.70;44.90;;;;;;4179262;28;19944;-84
2023/08/10 12:36:25;;;;;;;;;;;19.70;45.30;;;;;;4182619;28;19917;-84
2023/08/10 12:38:48;;;;;;;;;;;19.60;45.10;;;;;;4183480;28;19909;-87
2023/08/10 12:41:09;;;;;;;;;;;19.60;45.10;;;;;;4180435;28;19916;-84
2023/08/10 12:43:11;;;;;;;;;;;19.50;44.70;;;;;;4179351;28;19919;-87
2023/08/10 12:45:12;;;;;;;;;;;19.50;44.30;;;;;;4182188;28;19942;-85
2023/08/10 12:47:13;;;;;;;;;;;19.40;43.70;;;;;;4183698;28;19916;-85